• Join FlightAware (Why Join?)
  • Login
  • US Flag 
02:35AM EDT


 

Airport Tracker/Info


-or-


 

Live Flight TrackerFlight Track Log ✈ SIA21 ✈ 23-Nov-2013 ✈ KEWR - WSSS / SIN

Flight Track Log - Related Links

Times and Time Zones

All times are in EST time to prevent confusion due to time zone crossing. See the SIA21 flight status page for this flight to view local times or setup timezone preferences in your user account.

Time Position Orientation Groundspeed Altitude Reporting Facility
EST Latitude Longitude Course Direction KTS MPH feet Rate Location/Type
11:17PM 40.7395 -74.1224 37° Northeast 194 223 2,000  Level FlightAware ADS-B
11:17PM 40.7518 -74.1108 36° Northeast 208 239 2,300 1,020 Climbing FlightAware ADS-B
11:18PM 40.7626 -74.1008 35° Northeast 222 255 2,500 1,020 Climbing FlightAware ADS-B
11:18PM 40.7762 -74.0886 34° Northeast 238 274 2,800 1,320 Climbing FlightAware ADS-B
11:18PM 40.7991 -74.0677 35° Northeast 247 284 3,400 1,560 Climbing FlightAware ADS-B
11:18PM 40.8130 -74.0549 35° Northeast 264 304 3,800 1,740 Climbing FlightAware ADS-B
11:19PM 40.8232 -74.0462 33° Northeast 268 308 4,100 1,800 Climbing FlightAware ADS-B
11:19PM 40.8337 -74.0380 31° Northeast 271 312 4,400 2,340 Climbing FlightAware ADS-B
11:19PM 40.8538 -74.0241 28° Northeast 274 315 5,200 2,820 Climbing FlightAware ADS-B
11:19PM 40.8574 -74.0214 30° Northeast 275 316 5,400 3,240 Climbing FlightAware ADS-B
11:19PM 40.8661 -74.0139 33° Northeast 276 318 5,800 2,640 Climbing FlightAware ADS-B
11:19PM 40.8761 -74.0035 38° Northeast 282 325 6,200 2,280 Climbing FlightAware ADS-B
11:20PM 40.8913 -73.9857 42° Northeast 287 330 6,800 2,520 Climbing FlightAware ADS-B
11:20PM 40.9104 -73.9620 43° Northeast 289 333 7,700 2,700 Climbing FlightAware ADS-B
11:20PM 40.9267 -73.9424 42° Northeast 290 334 8,400 2,700 Climbing FlightAware ADS-B
11:21PM 40.9415 -73.9246 42° Northeast 288 331 9,100 2,400 Climbing FlightAware ADS-B
11:21PM 40.9586 -73.9048 41° Northeast 295 339 9,700 1,620 Climbing FlightAware ADS-B
11:21PM 40.9917 -73.8676 40° Northeast 315 362 10,400 1,200 Climbing FlightAware ADS-B
11:22PM 41.0274 -73.8282 40° Northeast 339 390 11,000 1,080 Climbing FlightAware ADS-B
11:22PM 41.0558 -73.7964 40° Northeast 362 417 11,600 1,440 Climbing FlightAware ADS-B (KSNC)
11:24PM 41.1664 -73.6705 41° Northeast 397 457 13,600 1,620 Climbing FlightAware ADS-B (KSNC)
11:24PM 41.2102 -73.6206 41° Northeast 409 471 14,400 1,620 Climbing FlightAware ADS-B (KSNC)
11:25PM 41.2823 -73.5392 40° Northeast 418 481 15,800 1,560 Climbing FlightAware ADS-B (KSNC)
11:25PM 41.3265 -73.4880 41° Northeast 429 494 16,500 1,440 Climbing FlightAware ADS-B (KSNC)
11:26PM 41.3944 -73.4112 40° Northeast 443 510 17,600 1,620 Climbing FlightAware ADS-B (KSNC)
11:27PM 41.4432 -73.3554 41° Northeast 449 517 18,600 1,560 Climbing FlightAware ADS-B (KSNC)
11:27PM 41.5170 -73.2994 30° Northeast 425 489 19,500 1,200 Climbing FlightAware ADS-B (KSNC)
11:28PM 41.5617 -73.2948 North 411 473 19,900 1,260 Climbing FlightAware ADS-B (KSNC)
11:29PM 41.7127 -73.3078 356° North 433 498 21,600 1,320 Climbing FlightAware ADS-B (KSNC)
11:30PM 41.7529 -73.3104 357° North 436 502 22,300 1,500 Climbing FlightAware ADS-B (KSNC)
11:30PM 41.8263 -73.3153 357° North 442 509 23,200 1,260 Climbing FlightAware ADS-B (KSNC)
11:31PM 41.9433 -73.3236 357° North 459 528 24,100 1,140 Climbing FlightAware ADS-B (KSNC)
11:31PM 42.0093 -73.3280 357° North 459 528 24,800 1,080 Climbing FlightAware ADS-B (KSNC)
11:32PM 42.0946 -73.3339 357° North 466 536 25,400 960 Climbing FlightAware ADS-B (KSNC)
11:33PM 42.2160 -73.3425 357° North 479 551 26,600 1,260 Climbing FlightAware ADS-B (KSNC)
11:34PM 42.3098 -73.3489 357° North 481 554 27,500 1,140 Climbing FlightAware ADS-B (KSNC)
11:34PM 42.3962 -73.3551 357° North 488 562 28,000 1,380 Climbing FlightAware ADS-B (KSNC)
11:35PM 42.4649 -73.3597 357° North 477 549 29,100 1,620 Climbing FlightAware ADS-B (KSNC)
11:36PM 42.6392 -73.3720 357° North 467 537 31,000 840 Climbing FlightAware ADS-B (KSNC)
11:37PM 42.7542 -73.3805 357° North 484 557 31,000  Level FlightAware ADS-B
11:42PM 43.3984 -73.4266 357° North 485 558 31,000  Level FlightAware ADS-B
11:42PM 43.4260 -73.4290 356° North 486 559 31,000  Level FlightAware ADS-B
11:43PM 43.4940 -73.4340 357° North 486 559 31,000  Level FlightAware ADS-B
11:43PM 43.5980 -73.4410 357° North 481 554 31,000  Level FlightAware ADS-B
11:44PM 43.6810 -73.4470 357° North 490 564 31,000  Level FlightAware ADS-B
11:45PM 43.7530 -73.4530 357° North 489 563 31,000  Level FlightAware ADS-B
11:45PM 43.8410 -73.4590 357° North 488 562 31,000  Level FlightAware ADS-B
11:46PM 43.9090 -73.4640 357° North 491 565 31,000  Level FlightAware ADS-B
11:46PM 43.9920 -73.4700 357° North 494 568 31,000  Level FlightAware ADS-B
11:47PM 44.0720 -73.4760 357° North 495 570 31,000  Level FlightAware ADS-B
11:48PM 44.1490 -73.4820 357° North 496 571 31,000  Level FlightAware ADS-B
11:48PM 44.2410 -73.4890 357° North 498 573 31,000  Level FlightAware ADS-B
11:49PM 44.3650 -73.4980 357° North 500 575 31,000  Level FlightAware ADS-B
11:50PM 44.4440 -73.5040 357° North 493 567 31,000  Level FlightAware ADS-B
11:50PM 44.5280 -73.5110 357° North 486 559 31,000  Level FlightAware ADS-B
11:51PM 44.6100 -73.5170 357° North 500 575 31,000  Level FlightAware ADS-B
11:51PM 44.6900 -73.5260 355° North 490 564 31,000  Level FlightAware ADS-B
11:52PM 44.7580 -73.5450 349° North 482 555 31,000  Level FlightAware ADS-B
11:53PM 44.8290 -73.5660 348° North 488 562 31,000  Level FlightAware ADS-B
11:53PM 44.8910 -73.5840 348° North 484 557 31,000  Level FlightAware ADS-B
11:54PM 44.9510 -73.6020 348° North 480 552 31,000  Level FlightAware ADS-B
11:54PM 45.0040 -73.6140 351° North 492 566 31,000  Level FlightAware ADS-B
11:55PM 45.0600 -73.6200 356° North 497 572 31,000 120 Level FlightAware ADS-B
11:55PM 45.1550 -73.6300 356° North 493 567 31,200 1,080 Climbing FlightAware ADS-B
11:56PM 45.2130 -73.6360 356° North 476 548 32,300 1,140 Climbing FlightAware ADS-B
11:56PM 45.2850 -73.6450 355° North 482 555 32,500 540 Climbing FlightAware ADS-B
11:57PM 45.4350 -73.6620 355° North 484 557 33,000 360 Climbing FlightAware ADS-B
11:58PM 45.5120 -73.6710 355° North 485 558 33,000  Level FlightAware ADS-B
11:58PM 45.5780 -73.6790 355° North 486 559 33,000  Level FlightAware ADS-B
11:59PM 45.6360 -73.6850 356° North 488 562 33,000  Level FlightAware ADS-B
11:59PM 45.6970 -73.6920 355° North 488 562 33,000  Level FlightAware ADS-B
12:00AM 45.7570 -73.6990 355° North 488 562 33,000  Level FlightAware ADS-B
12:00AM 45.8090 -73.7050 355° North 489 563 33,000  Level FlightAware ADS-B
12:01AM 45.8620 -73.7120 355° North 485 558 33,000  Level FlightAware ADS-B
12:01AM 45.9080 -73.7170 356° North 481 554 33,000  Level FlightAware ADS-B
12:02AM 46.1430 -73.7450 355° North 475 547 33,000  Level FlightAware ADS-B
12:03AM 46.2670 -73.7590 356° North 473 544 33,000  Level FlightAware ADS-B
12:04AM 46.3190 -73.7650 355° North 473 544 33,000  Level FlightAware ADS-B
12:04AM 46.3840 -73.7730 355° North 470 541 33,000  Level FlightAware ADS-B
12:05AM 46.4360 -73.7790 355° North 469 540 33,000  Level FlightAware ADS-B
12:05AM 46.5030 -73.7870 355° North 469 540 33,000  Level FlightAware ADS-B
12:06AM 46.5630 -73.7950 355° North 470 541 33,000  Level FlightAware ADS-B
12:07AM 46.6350 -73.8030 356° North 470 541 33,000  Level FlightAware ADS-B
12:07AM 46.6880 -73.8100 355° North 468 539 33,000  Level FlightAware ADS-B
12:08AM 46.7350 -73.8150 356° North 467 537 33,000  Level FlightAware ADS-B
12:09AM 46.8640 -73.8310 355° North 466 536 33,000  Level FlightAware ADS-B
12:09AM 46.9390 -73.8400 355° North 466 536 33,000  Level FlightAware ADS-B
12:10AM 47.0100 -73.8490 355° North 464 534 33,000  Level FlightAware ADS-B
12:10AM 47.0740 -73.8570 355° North 467 537 33,000  Level FlightAware ADS-B
12:12AM 47.2180 -73.8750 355° North 469 540 33,000  Level FlightAware ADS-B
12:12AM 47.4333 -73.8833 355° North 460 529 33,000  Level Montreal Center
12:13AM 47.5667 -73.9000 355° North 460 529 33,000  Level Montreal Center
12:14AM 47.6833 -73.9167 355° North 470 541 33,000  Level Montreal Center
12:15AM 47.8167 -73.9333 355° North 460 529 33,000  Level Montreal Center
12:16AM 47.9500 -73.9667 350° North 460 529 33,000  Level Montreal Center
12:17AM 48.0667 -73.9833 355° North 460 529 33,000  Level Montreal Center
12:18AM 48.2167 -74.0000 356° North 460 529 33,000  Level Montreal Center
12:19AM 48.3333 -74.0000 360° North 460 529 33,000  Level Montreal Center
12:20AM 48.4667 -74.0167 355° North 460 529 33,000  Level Montreal Center
12:21AM 48.6000 -74.0333 355° North 460 529 33,000  Level Montreal Center
12:22AM 48.7333 -74.0500 355° North 460 529 33,000  Level Montreal Center
12:23AM 48.8500 -74.0833 349° North 460 529 33,000  Level Montreal Center
12:24AM 48.9833 -74.1000 355° North 460 529 33,000  Level Montreal Center
12:25AM 49.1000 -74.1167 355° North 460 529 33,000  Level Montreal Center
12:26AM 49.2333 -74.1333 355° North 460 529 33,000  Level Montreal Center
12:27AM 49.3667 -74.1333 360° North 470 541 33,000  Level Montreal Center
12:28AM 49.5000 -74.1500 355° North 470 541 33,000  Level Montreal Center
12:29AM 49.6333 -74.1667 355° North 470 541 33,000  Level Montreal Center
12:30AM 49.7667 -74.2000 351° North 480 552 33,000  Level Montreal Center
12:31AM 49.9000 -74.2167 355° North 490 564 33,000  Level Montreal Center
12:33AM 50.0667 -74.2333 356° North 500 575 33,000  Level Montreal Center
12:34AM 50.2000 -74.2500 355° North 480 552 33,000  Level Montreal Center
12:35AM 50.3333 -74.2833 351° North 470 541 33,000  Level Montreal Center
12:36AM 50.4667 -74.3000 355° North 470 541 33,000  Level Montreal Center
12:37AM 50.6000 -74.3167 355° North 470 541 33,000  Level Montreal Center
12:38AM 50.7333 -74.3500 351° North 470 541 33,000  Level Montreal Center
12:39AM 50.8667 -74.3333 North 470 541 33,000  Level Montreal Center
12:40AM 50.9833 -74.3667 350° North 480 552 33,000  Level Montreal Center
12:41AM 51.1333 -74.3833 356° North 470 541 33,000  Level Montreal Center
12:42AM 51.2667 -74.4000 356° North 470 541 33,000  Level Montreal Center
12:43AM 51.4000 -74.4333 351° North 470 541 33,000  Level Montreal Center
12:44AM 51.5333 -74.4500 356° North 470 541 33,000  Level Montreal Center
12:45AM 51.6667 -74.4667 356° North 480 552 33,000  Level Montreal Center
12:46AM 51.8000 -74.5000 351° North 490 564 33,000  Level Montreal Center
12:47AM 51.9333 -74.5167 356° North 490 564 33,000  Level Montreal Center
12:48AM 52.0667 -74.5167 360° North 480 552 33,000  Level Montreal Center
12:49AM 52.2000 -74.5333 356° North 490 564 33,000  Level Montreal Center
12:50AM 52.3333 -74.5667 351° North 480 552 33,000  Level Montreal Center
12:51AM 52.4667 -74.5833 356° North 480 552 33,000  Level Montreal Center
12:52AM 52.6167 -74.6000 356° North 490 564 33,000  Level Montreal Center
12:53AM 52.7500 -74.6333 351° North 490 564 33,000  Level Montreal Center
12:54AM 52.8833 -74.6500 356° North 490 564 33,000  Level Montreal Center
12:55AM 53.0167 -74.6833 351° North 490 564 33,000  Level Montreal Center
12:56AM 53.1500 -74.7000 356° North 490 564 33,000  Level Montreal Center
12:57AM 53.2833 -74.7167 356° North 490 564 33,000  Level Montreal Center
12:58AM 53.4333 -74.7500 352° North 490 564 33,000  Level Montreal Center
12:59AM 53.5667 -74.7667 356° North 490 564 33,000  Level Montreal Center
01:00AM 53.6833 -74.7667 360° North 490 564 33,000  Level Montreal Center
01:01AM 53.8333 -74.8000 353° North 490 564 33,000  Level Montreal Center
01:02AM 53.9667 -74.8167 356° North 490 564 33,000  Level Montreal Center
01:03AM 54.1167 -74.8500 353° North 490 564 33,000  Level Montreal Center
01:04AM 54.2500 -74.8667 356° North 490 564 33,000  Level Montreal Center
01:05AM 54.4000 -74.9000 353° North 490 564 33,000  Level Montreal Center
01:06AM 54.5333 -74.9167 356° North 500 575 33,000  Level Montreal Center
01:07AM 54.6667 -74.9500 352° North 490 564 33,000  Level Montreal Center
01:08AM 54.8000 -74.9667 356° North 500 575 33,000  Level Montreal Center
01:09AM 54.9500 -75.0000 353° North 490 564 33,000  Level Montreal Center
01:10AM 55.0667 -75.0167 355° North 480 552 33,000  Level Montreal Center
01:11AM 55.2167 -75.0500 353° North 500 575 33,000  Level Montreal Center
01:12AM 55.3500 -75.0667 356° North 500 575 33,000  Level Montreal Center
01:13AM 55.4833 -75.1000 352° North 490 564 33,000  Level Montreal Center
01:14AM 55.6333 -75.1333 353° North 510 587 33,000  Level Montreal Center
01:15AM 55.7833 -75.1167 North 490 564 33,000  Level Montreal Center
01:16AM 55.9167 -75.1500 352° North 500 575 33,000  Level Montreal Center
01:17AM 56.0500 -75.1833 352° North 500 575 33,000  Level Montreal Center
01:18AM 56.2000 -75.2000 356° North 500 575 33,000  Level Montreal Center
01:19AM 56.3333 -75.2333 352° North 510 587 33,000  Level Montreal Center
01:20AM 56.4667 -75.2667 352° North 500 575 33,000  Level Montreal Center
01:22AM 56.7500 -75.3167 354° North 500 575 33,000  Level Montreal Center
01:23AM 56.8833 -75.3500 352° North 510 587 33,000  Level Montreal Center
01:24AM 57.0333 -75.3667 357° North 510 587 33,000  Level Montreal Center
01:25AM 57.1833 -75.4000 353° North 500 575 33,000  Level Montreal Center
01:26AM 57.3167 -75.4333 352° North 510 587 33,000  Level Montreal Center
01:27AM 57.4667 -75.4667 353° North 510 587 33,000  Level Montreal Center
01:28AM 57.6000 -75.4833 356° North 510 587 33,000  Level Montreal Center
01:29AM 57.7500 -75.5167 353° North 510 587 33,000  Level Montreal Center
01:30AM 57.8833 -75.5500 352° North 510 587 33,000  Level Montreal Center
01:30AM 57.9333 -75.4333 51° Northeast 520 598 33,000  Level Edmonton Center
01:31AM 58.0833 -75.4500 357° North 510 587 33,000  Level Edmonton Center
01:32AM 58.2167 -75.4833 352° North 520 598 33,000  Level Edmonton Center
01:33AM 58.3500 -75.5167 353° North 520 598 33,000  Level Edmonton Center
01:34AM 58.5167 -75.5500 354° North 520 598 33,000  Level Edmonton Center
01:35AM 58.6500 -75.5667 356° North 520 598 33,000  Level Edmonton Center
01:36AM 58.7833 -75.6167 349° North 520 598 33,000  Level Edmonton Center
01:37AM 58.9333 -75.6167 360° North 520 598 33,000  Level Edmonton Center
01:38AM 59.0833 -75.6667 350° North 520 598 33,000  Level Edmonton Center
01:39AM 59.2167 -75.6833 356° North 520 598 33,000  Level Edmonton Center
01:40AM 59.3667 -75.7167 354° North 520 598 33,000  Level Edmonton Center
01:41AM 59.5000 -75.7333 356° North 520 598 33,000  Level Edmonton Center
01:42AM 59.6500 -75.7833 350° North 520 598 33,000  Level Edmonton Center
01:43AM 59.8000 -75.8000 357° North 520 598 33,000  Level Edmonton Center
01:44AM 59.9333 -75.8500 349° North 520 598 33,000  Level Edmonton Center
01:45AM 60.0833 -75.8167 North 520 598 33,000  Level Edmonton Center
01:46AM 60.2167 -75.8000 North 520 598 33,000  Level Edmonton Center
01:47AM 60.3667 -75.7667 North 520 598 33,000  Level Edmonton Center
01:48AM 60.5000 -75.7500 North 520 598 33,000  Level Edmonton Center
01:49AM 60.6500 -75.7167 North 520 598 33,000  Level Edmonton Center
01:50AM 60.8000 -75.6833 North 520 598 33,000  Level Edmonton Center
01:51AM 60.9500 -75.6500 North 520 598 33,000  Level Edmonton Center
01:52AM 61.0833 -75.6333 North 520 598 33,000  Level Edmonton Center
01:53AM 61.2333 -75.6000 North 520 598 33,000  Level Edmonton Center
01:54AM 61.3667 -75.5833 North 520 598 33,000  Level Edmonton Center
01:55AM 61.5167 -75.5833 360° North 530 610 33,000  Level Edmonton Center
01:56AM 61.6667 -75.5500 North 520 598 33,000  Level Edmonton Center
01:57AM 61.8167 -75.5167 North 520 598 33,000  Level Edmonton Center
01:58AM 61.9667 -75.4833 North 520 598 33,000  Level Edmonton Center
01:59AM 62.1000 -75.4500 North 520 598 33,000  Level Edmonton Center
02:00AM 62.2500 -75.4333 North 530 610 33,000  Level Edmonton Center
02:01AM 62.3833 -75.4000 North 530 610 33,000  Level Edmonton Center
02:02AM 62.5500 -75.3500 North 520 598 33,000  Level Edmonton Center
02:03AM 62.6833 -75.3167 North 520 598 33,000  Level Edmonton Center
02:04AM 62.8333 -75.2833 North 530 610 33,000  Level Edmonton Center
02:05AM 62.9667 -75.2500 North 520 598 33,000  Level Edmonton Center
02:06AM 63.1167 -75.2333 North 530 610 33,000  Level Edmonton Center
02:07AM 63.2667 -75.2333 360° North 530 610 33,000  Level Edmonton Center
02:08AM 63.4167 -75.1833 North 530 610 33,000  Level Edmonton Center
02:09AM 63.5667 -75.1500 North 530 610 33,000  Level Edmonton Center
02:10AM 63.7000 -75.1167 North 530 610 33,000  Level Edmonton Center
02:11AM 63.8667 -75.0667 North 530 610 33,000  Level Edmonton Center
02:12AM 64.0000 -75.0333 North 530 610 33,000  Level Edmonton Center
02:13AM 64.1500 -75.0333 360° North 530 610 33,000  Level Edmonton Center
02:14AM 64.2833 -74.9667 12° North 520 598 33,000  Level Edmonton Center
02:15AM 64.4333 -74.9167 North 530 610 33,000  Level Edmonton Center
02:16AM 64.5833 -74.9167 360° North 530 610 33,000  Level Edmonton Center
02:17AM 64.7333 -74.8667 North 530 610 33,000  Level Edmonton Center
02:18AM 64.8833 -74.8167 North 540 621 33,000  Level Edmonton Center
02:19AM 65.0333 -74.7833 North 530 610 33,000  Level Edmonton Center
02:20AM 65.1833 -74.7667 North 530 610 33,000  Level Edmonton Center
02:21AM 65.3167 -74.7333 North 550 633 33,000  Level Edmonton Center
02:22AM 65.4833 -74.7167 North 570 656 33,000  Level Edmonton Center
02:23AM 65.6333 -74.6833 North 540 621 33,000  Level Edmonton Center
02:24AM 65.7833 -74.6667 North 540 621 33,000  Level Edmonton Center
02:25AM 65.9167 -74.6333 North 540 621 33,000  Level Edmonton Center
02:26AM 66.0833 -74.6167 North 540 621 33,000  Level Edmonton Center
02:27AM 66.2333 -74.6000 North 540 621 33,000  Level Edmonton Center
02:28AM 66.3667 -74.5667 North 540 621 33,000  Level Edmonton Center
02:29AM 66.5333 -74.5333 North 540 621 33,000  Level Edmonton Center
02:30AM 66.6833 -74.5000 North 540 621 33,000  Level Edmonton Center
02:31AM 66.8333 -74.4833 North 540 621 33,000  Level Edmonton Center
02:32AM 66.9833 -74.4333 North 540 621 33,000  Level Edmonton Center
02:33AM 67.1333 -74.4167 North 540 621 33,000  Level Edmonton Center
02:34AM 67.2833 -74.3500 10° North 550 633 33,000  Level Edmonton Center
02:35AM 67.4333 -74.3500 360° North 550 633 33,000  Level Edmonton Center
02:36AM 67.5833 -74.3333 North 550 633 33,000  Level Edmonton Center
02:37AM 67.7500 -74.2667 North 550 633 33,000  Level Edmonton Center
02:38AM 67.9000 -74.2667 360° North 540 621 33,000  Level Edmonton Center
02:39AM 68.0500 -74.2000 North 550 633 33,000  Level Edmonton Center
02:40AM 68.2000 -74.1833 North 540 621 33,000  Level Edmonton Center
02:41AM 68.3500 -74.1833 360° North 540 621 33,000  Level Edmonton Center
02:42AM 68.4833 -74.1333 North 540 621 33,000  Level Edmonton Center
02:43AM 68.6500 -74.1000 North 540 621 33,000  Level Edmonton Center
02:44AM 68.8000 -74.0500 North 540 621 33,000  Level Edmonton Center
02:45AM 68.9333 -74.0333 North 540 621 33,000  Level Edmonton Center
02:46AM 69.1000 -73.9500 10° North 540 621 33,000  Level Edmonton Center
02:47AM 69.2500 -73.9500 360° North 530 610 33,000  Level Edmonton Center
02:48AM 69.3833 -73.8833 10° North 530 610 33,000  Level Edmonton Center
02:49AM 69.5333 -73.8833 360° North 530 610 33,000  Level Edmonton Center
02:50AM 69.6833 -73.8167 North 530 610 33,000  Level Edmonton Center
02:51AM 69.8333 -73.8000 North 520 598 33,000  Level Edmonton Center
02:52AM 69.9667 -73.7500 North 530 610 33,000  Level Edmonton Center
02:53AM 70.1000 -73.7000 North 530 610 33,000  Level Edmonton Center
02:54AM 70.2667 -73.6167 10° North 530 610 33,000  Level Edmonton Center
02:55AM 70.4000 -73.5000 16° North 530 610 33,000  Level Edmonton Center
02:56AM 70.5500 -73.4167 10° North 530 610 33,000  Level Edmonton Center
02:57AM 70.6833 -73.3167 14° North 530 610 33,000  Level Edmonton Center
02:58AM 70.8167 -73.2500 North 530 610 33,000  Level Edmonton Center
02:59AM 70.9667 -73.1167 16° North 530 610 33,000  Level Edmonton Center
03:00AM 71.1167 -73.0500 North 530 610 33,000  Level Edmonton Center
03:01AM 71.2500 -72.9167 18° North 530 610 33,000  Level Edmonton Center
03:02AM 71.4000 -72.8500 North 530 610 33,000  Level Edmonton Center
03:03AM 71.5333 -72.7000 20° North 520 598 33,000  Level Edmonton Center
03:04AM 71.6833 -72.6333 North 520 598 33,000  Level Edmonton Center
03:05AM 71.8167 -72.5167 15° North 520 598 33,000  Level Edmonton Center
03:06AM 71.9667 -72.4167 12° North 520 598 33,000  Level Edmonton Center
03:07AM 72.1000 -72.3333 11° North 520 598 33,000  Level Edmonton Center
03:08AM 72.2333 -72.2000 17° North 520 598 33,000  Level Edmonton Center
03:09AM 72.3833 -72.1000 11° North 520 598 33,000  Level Edmonton Center
03:11AM 72.5359 -72.0052 11° North  Level FlightAware Approximate
03:18AM 73.4504 -71.4010 11° North  Level FlightAware Approximate
03:19AM 73.5808 -71.3093 11° North  Level FlightAware Approximate
03:20AM 73.7113 -71.2162 11° North  Level FlightAware Approximate
03:21AM 73.8417 -71.1217 11° North  Level FlightAware Approximate
03:22AM 73.9732 -71.0150 14° North  Level FlightAware Approximate
03:23AM 74.1022 -70.8958 14° North  Level FlightAware Approximate
03:24AM 74.2310 -70.7738 14° North  Level FlightAware Approximate
03:25AM 74.3597 -70.6496 15° North  Level FlightAware Approximate
03:26AM 74.4884 -70.5234 15° North  Level FlightAware Approximate
03:27AM 74.6170 -70.3952 15° North  Level FlightAware Approximate
03:28AM 74.7455 -70.2648 15° North  Level FlightAware Approximate
03:29AM 74.8739 -70.1323 15° North  Level FlightAware Approximate
03:30AM 75.0023 -69.9984 10° North  Level FlightAware Approximate
03:31AM 75.1335 -69.9103 10° North  Level FlightAware Approximate
03:32AM 75.2645 -69.8207 10° North  Level FlightAware Approximate
03:33AM 75.3956 -69.7295 10° North  Level FlightAware Approximate
03:34AM 75.5265 -69.6366 10° North  Level FlightAware Approximate
03:35AM 75.6575 -69.5422 10° North  Level FlightAware Approximate
03:36AM 75.7884 -69.4460 10° North  Level FlightAware Approximate
03:37AM 75.9193 -69.3480 10° North  Level FlightAware Approximate
03:38AM 76.0501 -69.2483 10° North  Level FlightAware Approximate
03:39AM 76.1809 -69.1467 11° North  Level FlightAware Approximate
03:40AM 76.3117 -69.0432 11° North  Level FlightAware Approximate
03:41AM 76.4424 -68.9377 11° North  Level FlightAware Approximate
03:42AM 76.5731 -68.8303 11° North  Level FlightAware Approximate
03:43AM 76.7037 -68.7207 11° North  Level FlightAware Approximate
03:44AM 76.8343 -68.6090 11° North  Level FlightAware Approximate
03:45AM 76.9648 -68.4952 11° North  Level FlightAware Approximate
03:46AM 77.0953 -68.3790 11° North  Level FlightAware Approximate
03:47AM 77.2257 -68.2606 11° North  Level FlightAware Approximate
03:48AM 77.3560 -68.1397 11° North  Level FlightAware Approximate
03:49AM 77.4864 -68.0163 12° North  Level FlightAware Approximate
03:50AM 77.6166 -67.8904 12° North  Level FlightAware Approximate
03:51AM 77.7468 -67.7619 12° North  Level FlightAware Approximate
03:52AM 77.8769 -67.6307 12° North  Level FlightAware Approximate
03:53AM 78.0070 -67.4966 12° North  Level FlightAware Approximate
03:54AM 78.1370 -67.3596 12° North  Level FlightAware Approximate
03:55AM 78.2670 -67.2197 12° North  Level FlightAware Approximate
03:56AM 78.3968 -67.0767 12° North  Level FlightAware Approximate
03:57AM 78.5266 -66.9305 13° North  Level FlightAware Approximate
03:58AM 78.6563 -66.7809 13° North  Level FlightAware Approximate
03:59AM 78.7860 -66.6280 13° North  Level FlightAware Approximate
04:00AM 78.9156 -66.4715 13° North  Level FlightAware Approximate
04:01AM 79.0451 -66.3114 13° North  Level FlightAware Approximate
04:02AM 79.1745 -66.1475 13° North  Level FlightAware Approximate
04:03AM 79.3038 -65.9797 14° North  Level FlightAware Approximate
04:04AM 79.4330 -65.8078 14° North  Level FlightAware Approximate
04:05AM 79.5621 -65.6317 14° North  Level FlightAware Approximate
04:06AM 79.6911 -65.4513 14° North  Level FlightAware Approximate
04:07AM 79.8200 -65.2663 14° North  Level FlightAware Approximate
04:08AM 79.9489 -65.0767 14° North  Level FlightAware Approximate
04:09AM 80.0778 -64.8869 14° North  Level FlightAware Approximate
04:10AM 80.2067 -64.6955 14° North  Level FlightAware Approximate
04:11AM 80.3356 -64.4989 14° North  Level FlightAware Approximate
04:12AM 80.4643 -64.2971 15° North  Level FlightAware Approximate
04:13AM 80.5929 -64.0898 15° North  Level FlightAware Approximate
04:14AM 80.7214 -63.8769 15° North  Level FlightAware Approximate
04:15AM 80.8497 -63.6580 15° North  Level FlightAware Approximate
04:16AM 80.9779 -63.4329 15° North  Level FlightAware Approximate
04:17AM 81.1060 -63.2014 16° North  Level FlightAware Approximate
04:18AM 81.2339 -62.9632 16° North  Level FlightAware Approximate
04:19AM 81.3617 -62.7181 16° North  Level FlightAware Approximate
04:20AM 81.4893 -62.4656 16° North  Level FlightAware Approximate
04:21AM 81.6168 -62.2054 17° North  Level FlightAware Approximate
04:22AM 81.7441 -61.9374 17° North  Level FlightAware Approximate
04:23AM 81.8711 -61.6610 17° North  Level FlightAware Approximate
04:24AM 81.9980 -61.3758 17° North  Level FlightAware Approximate
04:25AM 82.1247 -61.0816 18° North  Level FlightAware Approximate
04:26AM 82.2512 -60.7778 18° North  Level FlightAware Approximate
04:27AM 82.3775 -60.4640 18° North  Level FlightAware Approximate
04:28AM 82.5035 -60.1397 19° North  Level FlightAware Approximate
04:29AM 82.6293 -59.8043 19° North  Level FlightAware Approximate
04:30AM 82.7548 -59.4575 19° North  Level FlightAware Approximate
04:31AM 82.8801 -59.0984 20° North  Level FlightAware Approximate
04:32AM 83.0050 -58.7266 20° North  Level FlightAware Approximate
04:33AM 83.1297 -58.3413 20° North  Level FlightAware Approximate
04:34AM 83.2540 -57.9419 21° North  Level FlightAware Approximate
04:35AM 83.3780 -57.5276 21° North  Level FlightAware Approximate
04:36AM 83.5017 -57.0976 21° North  Level FlightAware Approximate
04:37AM 83.6249 -56.6510 22° Northeast  Level FlightAware Approximate
04:38AM 83.7478 -56.1868 22° Northeast  Level FlightAware Approximate
04:39AM 83.8703 -55.7042 23° Northeast  Level FlightAware Approximate
04:40AM 83.9923 -55.2020 23° Northeast  Level FlightAware Approximate
04:41AM 84.1138 -54.6791 24° Northeast  Level FlightAware Approximate
04:42AM 84.2348 -54.1343 24° Northeast  Level FlightAware Approximate
04:43AM 84.3553 -53.5663 25° Northeast  Level FlightAware Approximate
04:44AM 84.4752 -52.9736 25° Northeast  Level FlightAware Approximate
04:45AM 84.5945 -52.3548 26° Northeast  Level FlightAware Approximate
04:46AM 84.7131 -51.7082 27° Northeast  Level FlightAware Approximate
04:47AM 84.8310 -51.0321 27° Northeast  Level FlightAware Approximate
04:48AM 84.9482 -50.3247 28° Northeast  Level FlightAware Approximate
04:49AM 85.0664 -49.6221 26° Northeast  Level FlightAware Approximate
04:50AM 85.1851 -48.9165 26° Northeast  Level FlightAware Approximate
04:51AM 85.3031 -48.1753 27° Northeast  Level FlightAware Approximate
04:52AM 85.4203 -47.3961 28° Northeast  Level FlightAware Approximate
04:53AM 85.5366 -46.5763 29° Northeast  Level FlightAware Approximate
04:54AM 85.6520 -45.7129 29° Northeast  Level FlightAware Approximate
04:55AM 85.7663 -44.8027 30° Northeast  Level FlightAware Approximate
04:56AM 85.8795 -43.8424 31° Northeast  Level FlightAware Approximate
04:57AM 85.9914 -42.8282 32° Northeast  Level FlightAware Approximate
04:58AM 86.1021 -41.7562 33° Northeast  Level FlightAware Approximate
04:59AM 86.2113 -40.6221 34° Northeast  Level FlightAware Approximate
05:00AM 86.3189 -39.4212 35° Northeast  Level FlightAware Approximate
05:01AM 86.4248 -38.1487 37° Northeast  Level FlightAware Approximate
05:02AM 86.5289 -36.7994 38° Northeast  Level FlightAware Approximate
05:03AM 86.6309 -35.3675 39° Northeast  Level FlightAware Approximate
05:04AM 86.7307 -33.8474 41° Northeast  Level FlightAware Approximate
05:05AM 86.8281 -32.2329 42° Northeast  Level FlightAware Approximate
05:06AM 86.9227 -30.5177 44° Northeast  Level FlightAware Approximate
05:07AM 87.0145 -28.6955 45° Northeast  Level FlightAware Approximate
05:08AM 87.1031 -26.7599 47° Northeast  Level FlightAware Approximate
05:09AM 87.1881 -24.7049 49° Northeast  Level FlightAware Approximate
05:10AM 87.2693 -22.5247 51° Northeast  Level FlightAware Approximate
05:11AM 87.3463 -20.2147 53° Northeast  Level FlightAware Approximate
05:12AM 87.4188 -17.7708 56° Northeast  Level FlightAware Approximate
05:13AM 87.4863 -15.1909 58° Northeast  Level FlightAware Approximate
05:14AM 87.5485 -12.4745 61° Northeast  Level FlightAware Approximate
05:15AM 87.6048 -9.6236 64° Northeast  Level FlightAware Approximate
05:16AM 87.6550 -6.6432 66° East  Level FlightAware Approximate
05:17AM 87.6986 -3.5414 69° East  Level FlightAware Approximate
05:18AM 87.7352 -0.3297 72° East  Level FlightAware Approximate
05:19AM 87.7644 2.9766 76° East  Level FlightAware Approximate
05:20AM 87.7860 6.3589 79° East  Level FlightAware Approximate
05:21AM 87.7998 9.7957 82° East  Level FlightAware Approximate
05:22AM 87.8056 13.2632 86° East  Level FlightAware Approximate
05:23AM 87.8034 16.7363 89° East  Level FlightAware Approximate
05:24AM 87.7931 20.1896 93° East  Level FlightAware Approximate
05:25AM 87.7749 23.5987 96° East  Level FlightAware Approximate
05:26AM 87.7489 26.9409 100° East  Level FlightAware Approximate
05:27AM 87.7156 30.1963 103° East  Level FlightAware Approximate
05:28AM 87.6750 33.3481 106° East  Level FlightAware Approximate
05:29AM 87.6277 36.3831 109° East  Level FlightAware Approximate
05:30AM 87.5740 39.2918 112° Southeast  Level FlightAware Approximate
05:31AM 87.5144 42.0678 115° Southeast  Level FlightAware Approximate
05:32AM 87.4492 44.7078 118° Southeast  Level FlightAware Approximate
05:33AM 87.3788 47.2114 121° Southeast  Level FlightAware Approximate
05:34AM 87.3037 49.5800 123° Southeast  Level FlightAware Approximate
05:35AM 87.2243 51.8167 126° Southeast  Level FlightAware Approximate
05:36AM 87.1409 53.9262 128° Southeast  Level FlightAware Approximate
05:37AM 87.0539 55.9136 130° Southeast  Level FlightAware Approximate
05:38AM 86.9635 57.7849 132° Southeast  Level FlightAware Approximate
05:39AM 86.8701 59.5464 134° Southeast  Level FlightAware Approximate
05:40AM 86.7738 61.2045 135° Southeast  Level FlightAware Approximate
05:41AM 86.6751 62.7654 137° Southeast  Level FlightAware Approximate
05:42AM 86.5740 64.2353 139° Southeast  Level FlightAware Approximate
05:43AM 86.4708 65.6203 140° Southeast  Level FlightAware Approximate
05:44AM 86.3657 66.9259 142° Southeast  Level FlightAware Approximate
05:45AM 86.2588 68.1576 143° Southeast  Level FlightAware Approximate
05:46AM 86.1503 69.3205 144° Southeast  Level FlightAware Approximate
05:47AM 86.0403 70.4193 145° Southeast  Level FlightAware Approximate
05:48AM 85.9289 71.4584 146° Southeast  Level FlightAware Approximate
05:49AM 85.8162 72.4420 147° Southeast  Level FlightAware Approximate
05:50AM 85.7024 73.3738 148° Southeast  Level FlightAware Approximate
05:51AM 85.5875 74.2574 149° Southeast  Level FlightAware Approximate
05:52AM 85.4716 75.0960 150° Southeast  Level FlightAware Approximate
05:53AM 85.3548 75.8927 151° Southeast  Level FlightAware Approximate
05:54AM 85.2371 76.6503 152° Southeast  Level FlightAware Approximate
05:55AM 85.1187 77.3713 153° Southeast  Level FlightAware Approximate
05:56AM 84.9995 78.0581 153° Southeast  Level FlightAware Approximate
05:57AM 84.8796 78.7130 154° Southeast  Level FlightAware Approximate
05:58AM 84.7591 79.3379 155° Southeast  Level FlightAware Approximate
05:59AM 84.6380 79.9347 155° Southeast  Level FlightAware Approximate
06:00AM 84.5164 80.5051 156° South  Level FlightAware Approximate
06:01AM 84.3942 81.0509 156° South  Level FlightAware Approximate
06:02AM 84.2716 81.5733 157° South  Level FlightAware Approximate
06:03AM 84.1485 82.0740 157° South  Level FlightAware Approximate
06:04AM 84.0250 82.5540 158° South  Level FlightAware Approximate
06:05AM 83.9011 83.0146 158° South  Level FlightAware Approximate
06:06AM 83.7768 83.4569 159° South  Level FlightAware Approximate
06:07AM 83.6521 83.8819 159° South  Level FlightAware Approximate
06:08AM 83.5271 84.2906 160° South  Level FlightAware Approximate
06:09AM 83.4018 84.6839 160° South  Level FlightAware Approximate
06:10AM 83.2762 85.0625 161° South  Level FlightAware Approximate
06:11AM 83.1504 85.4273 161° South  Level FlightAware Approximate
06:12AM 83.0242 85.7790 161° South  Level FlightAware Approximate
06:13AM 82.8978 86.1183 162° South  Level FlightAware Approximate
06:14AM 82.7712 86.4457 162° South  Level FlightAware Approximate
06:15AM 82.6444 86.7619 162° South  Level FlightAware Approximate
06:16AM 82.5173 87.0675 163° South  Level FlightAware Approximate
06:17AM 82.3900 87.3628 163° South  Level FlightAware Approximate
06:18AM 82.2626 87.6486 163° South  Level FlightAware Approximate
06:19AM 82.1349 87.9250 163° South  Level FlightAware Approximate
06:20AM 82.0071 88.1928 164° South  Level FlightAware Approximate
06:21AM 81.8791 88.4521 164° South  Level FlightAware Approximate
06:22AM 81.7510 88.7035 164° South  Level FlightAware Approximate
06:23AM 81.6227 88.9472 165° South  Level FlightAware Approximate
06:24AM 81.4942 89.1835 165° South  Level FlightAware Approximate
06:25AM 81.3656 89.4129 165° South  Level FlightAware Approximate
06:26AM 81.2369 89.6357 165° South  Level FlightAware Approximate
06:27AM 81.1081 89.8520 165° South  Level FlightAware Approximate
06:28AM 80.9791 90.0622 166° South  Level FlightAware Approximate
06:29AM 80.8500 90.2665 166° South  Level FlightAware Approximate
06:30AM 80.7208 90.4652 166° South  Level FlightAware Approximate
06:31AM 80.5915 90.6584 166° South  Level FlightAware Approximate
06:32AM 80.4621 90.8465 166° South  Level FlightAware Approximate
06:33AM 80.3326 91.0295 167° South  Level FlightAware Approximate
06:34AM 80.2030 91.2078 167° South  Level FlightAware Approximate
06:35AM 80.0734 91.3815 167° South  Level FlightAware Approximate
06:36AM 79.9436 91.5507 167° South  Level FlightAware Approximate
06:37AM 79.8137 91.7157 167° South  Level FlightAware Approximate
06:38AM 79.6838 91.8765 167° South  Level FlightAware Approximate
06:39AM 79.5538 92.0334 168° South  Level FlightAware Approximate
06:40AM 79.4237 92.1865 168° South  Level FlightAware Approximate
06:41AM 79.2935 92.3359 168° South  Level FlightAware Approximate
06:42AM 79.1633 92.4817 168° South  Level FlightAware Approximate
06:43AM 79.0330 92.6242 168° South  Level FlightAware Approximate
06:44AM 78.9026 92.7633 168° South  Level FlightAware Approximate
06:45AM 78.7722 92.8992 169° South  Level FlightAware Approximate
06:46AM 78.6417 93.0321 169° South  Level FlightAware Approximate
06:47AM 78.5112 93.1619 169° South  Level FlightAware Approximate
06:48AM 78.3806 93.2889 169° South  Level FlightAware Approximate
06:49AM 78.2499 93.4131 169° South  Level FlightAware Approximate
06:50AM 78.1192 93.5346 169° South  Level FlightAware Approximate
06:51AM 77.9885 93.6535 169° South  Level FlightAware Approximate
06:52AM 77.8577 93.7699 169° South  Level FlightAware Approximate
06:53AM 77.7268 93.8838 170° South  Level FlightAware Approximate
06:54AM 77.5959 93.9954 170° South  Level FlightAware Approximate
06:55AM 77.4650 94.1046 170° South  Level FlightAware Approximate
06:56AM 77.3340 94.2117 170° South  Level FlightAware Approximate
06:57AM 77.2030 94.3166 170° South  Level FlightAware Approximate
06:58AM 77.0719 94.4193 170° South  Level FlightAware Approximate
06:59AM 76.9408 94.5201 170° South  Level FlightAware Approximate
07:00AM 76.8096 94.6189 170° South  Level FlightAware Approximate
07:01AM 76.6785 94.7158 170° South  Level FlightAware Approximate
07:02AM 76.5472 94.8108 170° South  Level FlightAware Approximate
07:03AM 76.4160 94.9041 171° South  Level FlightAware Approximate
07:04AM 76.2847 94.9956 171° South  Level FlightAware Approximate
07:05AM 76.1534 95.0853 171° South  Level FlightAware Approximate
07:06AM 76.0220 95.1734 171° South  Level FlightAware Approximate
07:07AM 75.8907 95.2599 171° South  Level FlightAware Approximate
07:08AM 75.7592 95.3449 171° South  Level FlightAware Approximate
07:09AM 75.6278 95.4283 171° South  Level FlightAware Approximate
07:10AM 75.4963 95.5103 171° South  Level FlightAware Approximate
07:11AM 75.3648 95.5908 171° South  Level FlightAware Approximate
07:12AM 75.2333 95.6699 171° South  Level FlightAware Approximate
07:13AM 75.1018 95.7476 171° South  Level FlightAware Approximate
07:14AM 74.9702 95.8240 171° South  Level FlightAware Approximate
07:15AM 74.8386 95.8991 172° South  Level FlightAware Approximate
07:16AM 74.7069 95.9730 172° South  Level FlightAware Approximate
07:17AM 74.5753 96.0456 172° South  Level FlightAware Approximate
07:18AM 74.4436 96.1170 172° South  Level FlightAware Approximate
07:19AM 74.3119 96.1873 172° South  Level FlightAware Approximate
07:20AM 74.1802 96.2564 172° South  Level FlightAware Approximate
07:21AM 74.0484 96.3244 172° South  Level FlightAware Approximate
07:22AM 73.9167 96.3913 172° South  Level FlightAware Approximate
07:23AM 73.7849 96.4571 172° South  Level FlightAware Approximate
07:24AM 73.6531 96.5219 172° South  Level FlightAware Approximate
07:25AM 73.5213 96.5857 172° South  Level FlightAware Approximate
07:26AM 73.3894 96.6486 172° South  Level FlightAware Approximate
07:27AM 73.2576 96.7104 172° South  Level FlightAware Approximate
07:28AM 73.1257 96.7713 172° South  Level FlightAware Approximate
07:29AM 72.9938 96.8314 172° South  Level FlightAware Approximate
07:30AM 72.8619 96.8905 172° South  Level FlightAware Approximate
07:31AM 72.7300 96.9487 173° South  Level FlightAware Approximate
07:32AM 72.5980 97.0061 173° South  Level FlightAware Approximate
07:33AM 72.4660 97.0626 173° South  Level FlightAware Approximate
07:34AM 72.3341 97.1183 173° South  Level FlightAware Approximate
07:35AM 72.2021 97.1732 173° South  Level FlightAware Approximate
07:36AM 72.0701 97.2274 173° South  Level FlightAware Approximate
07:37AM 71.9380 97.2807 173° South  Level FlightAware Approximate
07:38AM 71.8060 97.3334 173° South  Level FlightAware Approximate
07:39AM 71.6739 97.3853 173° South  Level FlightAware Approximate
07:40AM 71.5419 97.4364 173° South  Level FlightAware Approximate
07:41AM 71.4098 97.4869 173° South  Level FlightAware Approximate
07:42AM 71.2777 97.5367 173° South  Level FlightAware Approximate
07:43AM 71.1456 97.5858 173° South  Level FlightAware Approximate
07:44AM 71.0135 97.6342 173° South  Level FlightAware Approximate
07:45AM 70.8813 97.6820 173° South  Level FlightAware Approximate
07:46AM 70.7492 97.7292 173° South  Level FlightAware Approximate
07:47AM 70.6170 97.7758 173° South  Level FlightAware Approximate
07:48AM 70.4849 97.8217 173° South  Level FlightAware Approximate
07:49AM 70.3527 97.8671 173° South  Level FlightAware Approximate
07:50AM 70.2205 97.9118 173° South  Level FlightAware Approximate
07:51AM 70.0883 97.9560 174° South  Level FlightAware Approximate
07:52AM 69.9561 97.9997 174° South  Level FlightAware Approximate
07:53AM 69.8239 98.0428 174° South  Level FlightAware Approximate
07:54AM 69.6916 98.0853 174° South  Level FlightAware Approximate
07:55AM 69.5594 98.1273 174° South  Level FlightAware Approximate
07:56AM 69.4271 98.1689 174° South  Level FlightAware Approximate
07:57AM 69.2949 98.2098 174° South  Level FlightAware Approximate
07:58AM 69.1626 98.2504 174° South  Level FlightAware Approximate
07:59AM 69.0303 98.2904 174° South  Level FlightAware Approximate
08:00AM 68.8980 98.3299 174° South  Level FlightAware Approximate
08:01AM 68.7657 98.3690 174° South  Level FlightAware Approximate
08:02AM 68.6334 98.4076 174° South  Level FlightAware Approximate
08:03AM 68.5011 98.4457 174° South  Level FlightAware Approximate
08:04AM 68.3688 98.4834 174° South  Level FlightAware Approximate
08:05AM 68.2364 98.5207 174° South  Level FlightAware Approximate
08:06AM 68.1041 98.5575 174° South  Level FlightAware Approximate
08:07AM 67.9717 98.5940 174° South  Level FlightAware Approximate
08:08AM 67.8394 98.6300 174° South  Level FlightAware Approximate
08:09AM 67.7070 98.6656 174° South  Level FlightAware Approximate
08:10AM 67.5746 98.7008 174° South  Level FlightAware Approximate
08:11AM 67.4423 98.7356 174° South  Level FlightAware Approximate
08:12AM 67.3099 98.7700 174° South  Level FlightAware Approximate
08:13AM 67.1775 98.8041 174° South  Level FlightAware Approximate
08:14AM 67.0451 98.8377 174° South  Level FlightAware Approximate
08:15AM 66.9127 98.8710 174° South  Level FlightAware Approximate
08:16AM 66.7802 98.9040 174° South  Level FlightAware Approximate
08:17AM 66.6478 98.9366 174° South  Level FlightAware Approximate
08:18AM 66.5154 98.9688 174° South  Level FlightAware Approximate
08:19AM 66.3829 99.0007 174° South  Level FlightAware Approximate
08:20AM 66.2505 99.0323 175° South  Level FlightAware Approximate
08:21AM 66.1180 99.0636 175° South  Level FlightAware Approximate
08:22AM 65.9856 99.0945 175° South  Level FlightAware Approximate
08:23AM 65.8531 99.1251 175° South  Level FlightAware Approximate
08:24AM 65.7206 99.1554 175° South  Level FlightAware Approximate
08:25AM 65.5882 99.1853 175° South  Level FlightAware Approximate
08:26AM 65.4557 99.2150 175° South  Level FlightAware Approximate
08:27AM 65.3232 99.2444 175° South  Level FlightAware Approximate
08:28AM 65.1907 99.2735 175° South  Level FlightAware Approximate
08:29AM 65.0582 99.3023 175° South  Level FlightAware Approximate
08:30AM 64.9257 99.3307 175° South  Level FlightAware Approximate
08:31AM 64.7932 99.3590 175° South  Level FlightAware Approximate
08:32AM 64.6607 99.3869 175° South  Level FlightAware Approximate
08:33AM 64.5282 99.4146 175° South  Level FlightAware Approximate
08:34AM 64.3956 99.4420 175° South  Level FlightAware Approximate
08:35AM 64.2631 99.4692 175° South  Level FlightAware Approximate
08:36AM 64.1305 99.4960 175° South  Level FlightAware Approximate
08:37AM 63.9980 99.5227 175° South  Level FlightAware Approximate
08:38AM 63.8655 99.5491 175° South  Level FlightAware Approximate
08:39AM 63.7329 99.5752 175° South  Level FlightAware Approximate
08:40AM 63.6004 99.6011 175° South  Level FlightAware Approximate
08:41AM 63.4678 99.6267 175° South  Level FlightAware Approximate
08:42AM 63.3352 99.6521 175° South  Level FlightAware Approximate
08:43AM 63.2027 99.6773 175° South  Level FlightAware Approximate
08:44AM 63.0701 99.7023 175° South  Level FlightAware Approximate
08:45AM 62.9375 99.7270 175° South  Level FlightAware Approximate
08:46AM 62.8049 99.7515 175° South  Level FlightAware Approximate
08:47AM 62.6724 99.7758 175° South  Level FlightAware Approximate
08:48AM 62.5398 99.7998 175° South  Level FlightAware Approximate
08:49AM 62.4072 99.8237 175° South  Level FlightAware Approximate
08:50AM 62.2746 99.8473 175° South  Level FlightAware Approximate
08:51AM 62.1420 99.8708 175° South  Level FlightAware Approximate
08:52AM 62.0094 99.8940 175° South  Level FlightAware Approximate
08:53AM 61.8768 99.9170 175° South  Level FlightAware Approximate
08:54AM 61.7441 99.9398 175° South  Level FlightAware Approximate
08:55AM 61.6115 99.9625 175° South  Level FlightAware Approximate
08:56AM 61.4789 99.9849 175° South  Level FlightAware Approximate
08:57AM 61.3463 100.0072 175° South  Level FlightAware Approximate
08:58AM 61.2136 100.0292 175° South  Level FlightAware Approximate
08:59AM 61.0810 100.0511 175° South  Level FlightAware Approximate
09:00AM 60.9484 100.0728 175° South  Level FlightAware Approximate
09:01AM 60.8157 100.0943 175° South  Level FlightAware Approximate
09:02AM 60.6831 100.1156 175° South  Level FlightAware Approximate
09:03AM 60.5504 100.1368 176° South  Level FlightAware Approximate
09:04AM 60.4178 100.1578 176° South  Level FlightAware Approximate
09:05AM 60.2851 100.1786 176° South  Level FlightAware Approximate
09:06AM 60.1525 100.1993 176° South  Level FlightAware Approximate
09:07AM 60.0198 100.2197 176° South  Level FlightAware Approximate
09:08AM 59.8872 100.2401 176° South  Level FlightAware Approximate
09:09AM 59.7545 100.2602 176° South  Level FlightAware Approximate
09:10AM 59.6218 100.2802 176° South  Level FlightAware Approximate
09:11AM 59.4892 100.3001 176° South  Level FlightAware Approximate
09:12AM 59.3565 100.3197 176° South  Level FlightAware Approximate
09:13AM 59.2238 100.3393 176° South  Level FlightAware Approximate
09:14AM 59.0911 100.3587 176° South  Level FlightAware Approximate
09:15AM 58.9585 100.3779 176° South  Level FlightAware Approximate
09:16AM 58.8258 100.3970 176° South  Level FlightAware Approximate
09:17AM 58.6931 100.4159 176° South  Level FlightAware Approximate
09:18AM 58.5604 100.4347 176° South  Level FlightAware Approximate
09:19AM 58.4277 100.4533 176° South  Level FlightAware Approximate
09:20AM 58.2950 100.4719 176° South  Level FlightAware Approximate
09:21AM 58.1623 100.4902 176° South  Level FlightAware Approximate
09:22AM 58.0296 100.5085 176° South  Level FlightAware Approximate
09:23AM 57.8969 100.5266 176° South  Level FlightAware Approximate
09:24AM 57.7642 100.5445 176° South  Level FlightAware Approximate
09:25AM 57.6315 100.5624 176° South  Level FlightAware Approximate
09:26AM 57.4988 100.5801 176° South  Level FlightAware Approximate
09:27AM 57.3661 100.5977 176° South  Level FlightAware Approximate
09:28AM 57.2333 100.6151 176° South  Level FlightAware Approximate
09:29AM 57.1006 100.6324 176° South  Level FlightAware Approximate
09:30AM 56.9679 100.6497 176° South  Level FlightAware Approximate
09:31AM 56.8352 100.6667 176° South  Level FlightAware Approximate
09:32AM 56.7024 100.6837 176° South  Level FlightAware Approximate
09:33AM 56.5697 100.7005 176° South  Level FlightAware Approximate
09:34AM 56.4370 100.7172 176° South  Level FlightAware Approximate
09:35AM 56.3043 100.7339 176° South  Level FlightAware Approximate
09:36AM 56.1715 100.7504 176° South  Level FlightAware Approximate
09:37AM 56.0388 100.7667 176° South  Level FlightAware Approximate
09:38AM 55.9060 100.7830 176° South  Level FlightAware Approximate
09:39AM 55.7733 100.7992 176° South  Level FlightAware Approximate
09:40AM 55.6406 100.8152 176° South  Level FlightAware Approximate
09:41AM 55.5078 100.8311 176° South  Level FlightAware Approximate
09:42AM 55.3751 100.8470 176° South  Level FlightAware Approximate
09:43AM 55.2423 100.8627 176° South  Level FlightAware Approximate
09:44AM 55.1096 100.8783 176° South  Level FlightAware Approximate
09:45AM 54.9768 100.8939 176° South  Level FlightAware Approximate
09:46AM 54.8441 100.9093 176° South  Level FlightAware Approximate
09:47AM 54.7113 100.9246 176° South  Level FlightAware Approximate
09:48AM 54.5785 100.9398 176° South  Level FlightAware Approximate
09:49AM 54.4458 100.9549 176° South  Level FlightAware Approximate
09:50AM 54.3130 100.9699 176° South  Level FlightAware Approximate
09:51AM 54.1802 100.9848 176° South  Level FlightAware Approximate
09:52AM 54.0475 100.9997 176° South  Level FlightAware Approximate
09:53AM 53.9147 101.0144 176° South  Level FlightAware Approximate
09:54AM 53.7819 101.0291 176° South  Level FlightAware Approximate
09:55AM 53.6492 101.0436 176° South  Level FlightAware Approximate
09:56AM 53.5164 101.0581 176° South  Level FlightAware Approximate
09:57AM 53.3836 101.0724 176° South  Level FlightAware Approximate
09:58AM 53.2508 101.0867 176° South  Level FlightAware Approximate
09:59AM 53.1180 101.1009 176° South  Level FlightAware Approximate
10:00AM 52.9853 101.1150 176° South  Level FlightAware Approximate
10:01AM 52.8525 101.1290 176° South  Level FlightAware Approximate
10:02AM 52.7197 101.1429 176° South  Level FlightAware Approximate
10:03AM 52.5869 101.1568 176° South  Level FlightAware Approximate
10:04AM 52.4541 101.1705 176° South  Level FlightAware Approximate
10:05AM 52.3213 101.1842 176° South  Level FlightAware Approximate
10:06AM 52.1885 101.1978 176° South  Level FlightAware Approximate
10:07AM 52.0558 101.2113 176° South  Level FlightAware Approximate
10:08AM 51.9230 101.2247 176° South  Level FlightAware Approximate
10:09AM 51.7902 101.2381 176° South  Level FlightAware Approximate
10:10AM 51.6574 101.2514 176° South  Level FlightAware Approximate
10:11AM 51.5246 101.2645 176° South  Level FlightAware Approximate
10:12AM 51.3918 101.2777 176° South  Level FlightAware Approximate
10:13AM 51.2590 101.2907 176° South  Level FlightAware Approximate
10:14AM 51.1262 101.3037 176° South  Level FlightAware Approximate
10:15AM 50.9934 101.3166 177° South  Level FlightAware Approximate
10:16AM 50.8606 101.3294 177° South  Level FlightAware Approximate
10:17AM 50.7277 101.3422 177° South  Level FlightAware Approximate
10:18AM 50.5949 101.3548 177° South  Level FlightAware Approximate
10:19AM 50.4621 101.3674 177° South  Level FlightAware Approximate
10:20AM 50.3293 101.3800 177° South  Level FlightAware Approximate
10:21AM 50.1965 101.3925 177° South  Level FlightAware Approximate
10:22AM 50.0637 101.4049 177° South  Level FlightAware Approximate
10:23AM 49.9309 101.4172 177° South  Level FlightAware Approximate
10:24AM 49.7981 101.4295 177° South  Level FlightAware Approximate
10:25AM 49.6652 101.4416 177° South  Level FlightAware Approximate
10:26AM 49.5324 101.4538 177° South  Level FlightAware Approximate
10:27AM 49.3996 101.4658 177° South  Level FlightAware Approximate
10:28AM 49.2668 101.4778 177° South  Level FlightAware Approximate
10:29AM 49.1340 101.4898 177° South  Level FlightAware Approximate
10:30AM 49.0011 101.5016 177° South  Level FlightAware Approximate
10:31AM 48.8683 101.5134 177° South  Level FlightAware Approximate
10:32AM 48.7355 101.5252 177° South  Level FlightAware Approximate
10:33AM 48.6026 101.5368 177° South  Level FlightAware Approximate
10:34AM 48.4698 101.5485 177° South  Level FlightAware Approximate
10:35AM 48.3370 101.5600 177° South  Level FlightAware Approximate
10:36AM 48.2042 101.5715 177° South  Level FlightAware Approximate
10:37AM 48.0713 101.5830 177° South  Level FlightAware Approximate
10:38AM 47.9385 101.5944 177° South  Level FlightAware Approximate
10:39AM 47.8057 101.6057 177° South  Level FlightAware Approximate
10:40AM 47.6728 101.6169 177° South  Level FlightAware Approximate
10:41AM 47.5400 101.6281 177° South  Level FlightAware Approximate
10:42AM 47.4072 101.6393 177° South  Level FlightAware Approximate
10:43AM 47.2743 101.6504 177° South  Level FlightAware Approximate
10:44AM 47.1415 101.6614 177° South  Level FlightAware Approximate
10:45AM 47.0086 101.6724 177° South  Level FlightAware Approximate
10:46AM 46.8758 101.6833 177° South  Level FlightAware Approximate
10:47AM 46.7430 101.6942 177° South  Level FlightAware Approximate
10:48AM 46.6101 101.7050 177° South  Level FlightAware Approximate
10:49AM 46.4773 101.7158 177° South  Level FlightAware Approximate
10:50AM 46.3444 101.7265 177° South  Level FlightAware Approximate
10:51AM 46.2116 101.7372 177° South  Level FlightAware Approximate
10:52AM 46.0787 101.7478 177° South  Level FlightAware Approximate
10:53AM 45.9459 101.7583 177° South  Level FlightAware Approximate
10:54AM 45.8130 101.7689 177° South  Level FlightAware Approximate
10:55AM 45.6802 101.7793 177° South  Level FlightAware Approximate
10:56AM 45.5473 101.7897 177° South  Level FlightAware Approximate
10:57AM 45.4145 101.8001 177° South  Level FlightAware Approximate
10:58AM 45.2816 101.8104 177° South  Level FlightAware Approximate
10:59AM 45.1488 101.8207 177° South  Level FlightAware Approximate
11:00AM 45.0159 101.8309 177° South  Level FlightAware Approximate
11:01AM 44.8830 101.8410 177° South  Level FlightAware Approximate
11:02AM 44.7502 101.8512 177° South  Level FlightAware Approximate
11:03AM 44.6173 101.8613 177° South  Level FlightAware Approximate
11:04AM 44.4845 101.8713 177° South  Level FlightAware Approximate
11:05AM 44.3516 101.8813 177° South  Level FlightAware Approximate
11:06AM 44.2187 101.8912 177° South  Level FlightAware Approximate
11:07AM 44.0859 101.9011 177° South  Level FlightAware Approximate
11:08AM 43.9530 101.9110 177° South  Level FlightAware Approximate
11:09AM 43.8202 101.9208 177° South  Level FlightAware Approximate
11:10AM 43.6873 101.9305 177° South  Level FlightAware Approximate
11:11AM 43.5544 101.9402 177° South  Level FlightAware Approximate
11:12AM 43.4216 101.9499 177° South  Level FlightAware Approximate
11:13AM 43.2887 101.9596 177° South  Level FlightAware Approximate
11:14AM 43.1558 101.9691 177° South  Level FlightAware Approximate
11:15AM 43.0229 101.9787 177° South  Level FlightAware Approximate
11:16AM 42.8901 101.9882 177° South  Level FlightAware Approximate
11:17AM 42.7572 101.9977 177° South  Level FlightAware Approximate
11:18AM 42.6243 102.0071 177° South  Level FlightAware Approximate
11:19AM 42.4915 102.0165 177° South  Level FlightAware Approximate
11:20AM 42.3586 102.0258 177° South  Level FlightAware Approximate
11:21AM 42.2257 102.0352 177° South  Level FlightAware Approximate
11:22AM 42.0929 102.0444 177° South  Level FlightAware Approximate
11:23AM 41.9600 102.0537 177° South  Level FlightAware Approximate
11:24AM 41.8271 102.0629 177° South  Level FlightAware Approximate
11:25AM 41.6942 102.0720 177° South  Level FlightAware Approximate
11:26AM 41.5614 102.0811 177° South  Level FlightAware Approximate
11:27AM 41.4285 102.0902 177° South  Level FlightAware Approximate
11:28AM 41.2956 102.0992 177° South  Level FlightAware Approximate
11:29AM 41.1627 102.1083 177° South  Level FlightAware Approximate
11:30AM 41.0298 102.1172 177° South  Level FlightAware Approximate
11:31AM 40.8969 102.1262 177° South  Level FlightAware Approximate
11:32AM 40.7641 102.1350 177° South  Level FlightAware Approximate
11:33AM 40.6312 102.1439 177° South  Level FlightAware Approximate
11:34AM 40.4983 102.1527 177° South  Level FlightAware Approximate
11:35AM 40.3654 102.1615 177° South  Level FlightAware Approximate
11:36AM 40.2326 102.1703 177° South  Level FlightAware Approximate
11:37AM 40.0997 102.1790 177° South  Level FlightAware Approximate
11:38AM 39.9668 102.1877 177° South  Level FlightAware Approximate
11:39AM 39.8339 102.1964 177° South  Level FlightAware Approximate
11:40AM 39.7010 102.2050 177° South  Level FlightAware Approximate
11:41AM 39.5681 102.2136 177° South  Level FlightAware Approximate
11:42AM 39.4352 102.2221 177° South  Level FlightAware Approximate
11:43AM 39.3023 102.2307 177° South  Level FlightAware Approximate
11:44AM 39.1694 102.2391 177° South  Level FlightAware Approximate
11:45AM 39.0366 102.2476 177° South  Level FlightAware Approximate
11:46AM 38.9037 102.2560 177° South  Level FlightAware Approximate
11:47AM 38.7708 102.2644 177° South  Level FlightAware Approximate
11:48AM 38.6379 102.2728 177° South  Level FlightAware Approximate
11:49AM 38.5050 102.2811 177° South  Level FlightAware Approximate
11:50AM 38.3721 102.2894 177° South  Level FlightAware Approximate
11:51AM 38.2392 102.2977 177° South  Level FlightAware Approximate
11:52AM 38.1063 102.3059 177° South  Level FlightAware Approximate
11:53AM 37.9734 102.3141 177° South  Level FlightAware Approximate
11:54AM 37.8405 102.3223 177° South  Level FlightAware Approximate
11:55AM 37.7076 102.3305 177° South  Level FlightAware Approximate
11:56AM 37.5747 102.3386 177° South  Level FlightAware Approximate
11:57AM 37.4418 102.3467 177° South  Level FlightAware Approximate
11:58AM 37.3089 102.3548 177° South  Level FlightAware Approximate
11:59AM 37.1760 102.3628 177° South  Level FlightAware Approximate
12:00PM 37.0432 102.3708 177° South  Level FlightAware Approximate
12:01PM 36.9103 102.3788 177° South  Level FlightAware Approximate
12:02PM 36.7774 102.3867 177° South  Level FlightAware Approximate
12:03PM 36.6445 102.3947 177° South  Level FlightAware Approximate
12:04PM 36.5116 102.4026 177° South  Level FlightAware Approximate
12:05PM 36.3787 102.4104 177° South  Level FlightAware Approximate
12:06PM 36.2458 102.4183 177° South  Level FlightAware Approximate
12:07PM 36.1129 102.4261 177° South  Level FlightAware Approximate
12:08PM 35.9799 102.4339 177° South  Level FlightAware Approximate
12:09PM 35.8470 102.4417 177° South  Level FlightAware Approximate
12:10PM 35.7141 102.4494 177° South  Level FlightAware Approximate
12:11PM 35.5812 102.4571 177° South  Level FlightAware Approximate
12:12PM 35.4483 102.4648 177° South  Level FlightAware Approximate
12:13PM 35.3154 102.4725 177° South  Level FlightAware Approximate
12:14PM 35.1825 102.4801 177° South  Level FlightAware Approximate
12:15PM 35.0496 102.4877 177° South  Level FlightAware Approximate
12:16PM 34.9167 102.4953 177° South  Level FlightAware Approximate
12:17PM 34.7838 102.5029 177° South  Level FlightAware Approximate
12:18PM 34.6509 102.5104 177° South  Level FlightAware Approximate
12:19PM 34.5180 102.5179 177° South  Level FlightAware Approximate
12:20PM 34.3851 102.5254 177° South  Level FlightAware Approximate
12:21PM 34.2522 102.5329 177° South  Level FlightAware Approximate
12:22PM 34.1193 102.5403 177° South  Level FlightAware Approximate
12:23PM 33.9864 102.5478 177° South  Level FlightAware Approximate
12:24PM 33.8534 102.5552 177° South  Level FlightAware Approximate
12:25PM 33.7205 102.5625 177° South  Level FlightAware Approximate
12:26PM 33.5876 102.5699 177° South  Level FlightAware Approximate
12:27PM 33.4547 102.5772 177° South  Level FlightAware Approximate
12:28PM 33.3218 102.5845 177° South  Level FlightAware Approximate
12:29PM 33.1889 102.5918 177° South  Level FlightAware Approximate
12:30PM 33.0560 102.5991 177° South  Level FlightAware Approximate
12:31PM 32.9231 102.6063 177° South  Level FlightAware Approximate
12:32PM 32.7902 102.6135 177° South  Level FlightAware Approximate
12:33PM 32.6572 102.6207 177° South  Level FlightAware Approximate
12:34PM 32.5243 102.6279 177° South  Level FlightAware Approximate
12:35PM 32.3914 102.6350 177° South  Level FlightAware Approximate
12:36PM 32.2585 102.6422 177° South  Level FlightAware Approximate
12:37PM 32.1256 102.6493 177° South  Level FlightAware Approximate
12:38PM 31.9927 102.6564 177° South  Level FlightAware Approximate
12:39PM 31.8598 102.6634 177° South  Level FlightAware Approximate
12:40PM 31.7268 102.6705 177° South  Level FlightAware Approximate
12:41PM 31.5939 102.6775 177° South  Level FlightAware Approximate
12:42PM 31.4610 102.6845 177° South  Level FlightAware Approximate
12:43PM 31.3281 102.6915 177° South  Level FlightAware Approximate
12:44PM 31.1952 102.6985 177° South  Level FlightAware Approximate
12:45PM 31.0622 102.7054 177° South  Level FlightAware Approximate
12:46PM 30.9293 102.7124 177° South  Level FlightAware Approximate
12:47PM 30.7964 102.7193 177° South  Level FlightAware Approximate
12:48PM 30.6635 102.7262 177° South  Level FlightAware Approximate
12:49PM 30.5306 102.7330 177° South  Level FlightAware Approximate
12:50PM 30.3976 102.7399 177° South  Level FlightAware Approximate
12:51PM 30.2647 102.7467 177° South  Level FlightAware Approximate
12:52PM 30.1318 102.7536 177° South  Level FlightAware Approximate
12:53PM 29.9989 102.7604 177° South  Level FlightAware Approximate
12:54PM 29.8660 102.7672 177° South  Level FlightAware Approximate
12:55PM 29.7330 102.7739 177° South  Level FlightAware Approximate
12:56PM 29.6001 102.7807 177° South  Level FlightAware Approximate
12:57PM 29.4672 102.7874 177° South  Level FlightAware Approximate
12:58PM 29.3343 102.7941 177° South  Level FlightAware Approximate
12:59PM 29.2014 102.8008 177° South  Level FlightAware Approximate
01:00PM 29.0684 102.8075 177° South  Level FlightAware Approximate
01:01PM 28.9355 102.8141 177° South  Level FlightAware Approximate
01:02PM 28.8026 102.8208 177° South  Level FlightAware Approximate
01:03PM 28.6697 102.8274 177° South  Level FlightAware Approximate
01:04PM 28.5368 102.8340 177° South  Level FlightAware Approximate
01:05PM 28.4038 102.8406 178° South  Level FlightAware Approximate
01:06PM 28.2709 102.8472 178° South  Level FlightAware Approximate
01:07PM 28.1380 102.8537 178° South  Level FlightAware Approximate
01:08PM 28.0050 102.8603 178° South  Level FlightAware Approximate
01:09PM 27.8721 102.8668 178° South  Level FlightAware Approximate
01:10PM 27.7392 102.8733 178° South  Level FlightAware Approximate
01:11PM 27.6063 102.8798 178° South  Level FlightAware Approximate
01:12PM 27.4733 102.8863 178° South  Level FlightAware Approximate
01:13PM 27.3404 102.8928 178° South  Level FlightAware Approximate
01:14PM 27.2075 102.8992 178° South  Level FlightAware Approximate
01:15PM 27.0745 102.9056 178° South  Level FlightAware Approximate
01:16PM 26.9416 102.9120 178° South  Level FlightAware Approximate
01:17PM 26.8087 102.9184 178° South  Level FlightAware Approximate
01:18PM 26.6757 102.9248 178° South  Level FlightAware Approximate
01:19PM 26.5428 102.9312 178° South  Level FlightAware Approximate
01:20PM 26.4099 102.9376 178° South  Level FlightAware Approximate
01:21PM 26.2770 102.9439 178° South  Level FlightAware Approximate
01:22PM 26.1440 102.9502 178° South  Level FlightAware Approximate
01:23PM 26.0111 102.9566 178° South  Level FlightAware Approximate
01:24PM 25.8782 102.9629 178° South  Level FlightAware Approximate
01:25PM 25.7452 102.9691 178° South  Level FlightAware Approximate
01:26PM 25.6123 102.9754 178° South  Level FlightAware Approximate
01:27PM 25.4794 102.9817 178° South  Level FlightAware Approximate
01:28PM 25.3464 102.9879 178° South  Level FlightAware Approximate
01:29PM 25.2135 102.9941 178° South  Level FlightAware Approximate
01:30PM 25.0806 103.0004 178° South  Level FlightAware Approximate
01:31PM 24.9477 103.0066 178° South  Level FlightAware Approximate
01:32PM 24.8147 103.0127 178° South  Level FlightAware Approximate
01:33PM 24.6818 103.0189 178° South  Level FlightAware Approximate
01:34PM 24.5489 103.0251 178° South  Level FlightAware Approximate
01:35PM 24.4159 103.0312 178° South  Level FlightAware Approximate
01:36PM 24.2830 103.0374 178° South  Level FlightAware Approximate
01:37PM 24.1501 103.0435 178° South  Level FlightAware Approximate
01:38PM 24.0171 103.0496 178° South  Level FlightAware Approximate
01:39PM 23.8842 103.0557 178° South  Level FlightAware Approximate
01:40PM 23.7513 103.0618 178° South  Level FlightAware Approximate
01:41PM 23.6183 103.0679 178° South  Level FlightAware Approximate
01:42PM 23.4854 103.0739 178° South  Level FlightAware Approximate
01:43PM 23.3525 103.0800 178° South  Level FlightAware Approximate
01:44PM 23.2195 103.0860 178° South  Level FlightAware Approximate
01:45PM 23.0866 103.0920 178° South  Level FlightAware Approximate
01:46PM 22.9536 103.0981 178° South  Level FlightAware Approximate
01:47PM 22.8207 103.1041 178° South  Level FlightAware Approximate
01:48PM 22.6878 103.1100 178° South  Level FlightAware Approximate
01:49PM 22.5548 103.1160 178° South  Level FlightAware Approximate
01:50PM 22.4219 103.1220 178° South  Level FlightAware Approximate
01:51PM 22.2889 103.1280 178° South  Level FlightAware Approximate
01:52PM 22.1560 103.1339 178° South  Level FlightAware Approximate
01:53PM 22.0231 103.1398 178° South  Level FlightAware Approximate
01:54PM 21.8901 103.1458 178° South  Level FlightAware Approximate
01:55PM 21.7572 103.1517 178° South  Level FlightAware Approximate
01:56PM 21.6243 103.1576 178° South  Level FlightAware Approximate
01:57PM 21.4913 103.1635 178° South  Level FlightAware Approximate
01:58PM 21.3584 103.1693 178° South  Level FlightAware Approximate
01:59PM 21.2254 103.1752 178° South  Level FlightAware Approximate
02:00PM 21.0925 103.1811 178° South  Level FlightAware Approximate
02:01PM 20.9596 103.1869 178° South  Level FlightAware Approximate
02:02PM 20.8266 103.1927 178° South  Level FlightAware Approximate
02:03PM 20.6937 103.1986 178° South  Level FlightAware Approximate
02:04PM 20.5607 103.2044 178° South  Level FlightAware Approximate
02:05PM 20.4278 103.2102 178° South  Level FlightAware Approximate
02:06PM 20.2948 103.2160 178° South  Level FlightAware Approximate
02:07PM 20.1619 103.2218 178° South  Level FlightAware Approximate
02:08PM 20.0290 103.2276 178° South  Level FlightAware Approximate
02:09PM 19.8960 103.2334 178° South  Level FlightAware Approximate
02:10PM 19.7631 103.2391 178° South  Level FlightAware Approximate
02:11PM 19.6301 103.2449 178° South  Level FlightAware Approximate
02:12PM 19.4972 103.2506 178° South  Level FlightAware Approximate
02:13PM 19.3643 103.2563 178° South  Level FlightAware Approximate
02:14PM 19.2313 103.2620 178° South  Level FlightAware Approximate
02:15PM 19.0984 103.2678 178° South  Level FlightAware Approximate
02:16PM 18.9655 103.2735 178° South  Level FlightAware Approximate
02:17PM 18.8325 103.2792 178° South  Level FlightAware Approximate
02:18PM 18.6996 103.2848 178° South  Level FlightAware Approximate
02:19PM 18.5666 103.2905 178° South  Level FlightAware Approximate
02:20PM 18.4337 103.2962 178° South  Level FlightAware Approximate
02:21PM 18.3008 103.3018 178° South  Level FlightAware Approximate
02:22PM 18.1678 103.3075 178° South  Level FlightAware Approximate
02:23PM 18.0349 103.3131 178° South  Level FlightAware Approximate
02:24PM 17.9019 103.3187 178° South  Level FlightAware Approximate
02:25PM 17.7690 103.3244 178° South  Level FlightAware Approximate
02:26PM 17.6360 103.3300 178° South  Level FlightAware Approximate
02:27PM 17.5031 103.3356 178° South  Level FlightAware Approximate
02:28PM 17.3702 103.3412 178° South  Level FlightAware Approximate
02:29PM 17.2372 103.3468 178° South  Level FlightAware Approximate
02:30PM 17.1043 103.3523 178° South  Level FlightAware Approximate
02:31PM 16.9713 103.3579 178° South  Level FlightAware Approximate
02:32PM 16.8384 103.3635 178° South  Level FlightAware Approximate
02:33PM 16.7055 103.3690 178° South  Level FlightAware Approximate
02:34PM 16.5725 103.3746 178° South  Level FlightAware Approximate
02:35PM 16.4396 103.3801 178° South  Level FlightAware Approximate
02:36PM 16.3066 103.3857 178° South  Level FlightAware Approximate
02:37PM 16.1737 103.3912 178° South  Level FlightAware Approximate
02:38PM 16.0407 103.3967 178° South  Level FlightAware Approximate
02:39PM 15.9078 103.4022 178° South  Level FlightAware Approximate
02:40PM 15.7748 103.4077 178° South  Level FlightAware Approximate
02:41PM 15.6419 103.4132 178° South  Level FlightAware Approximate
02:42PM 15.5089 103.4187 178° South  Level FlightAware Approximate
02:43PM 15.3760 103.4242 178° South  Level FlightAware Approximate
02:44PM 15.2430 103.4297 178° South  Level FlightAware Approximate
02:45PM 15.1101 103.4351 178° South  Level FlightAware Approximate
02:46PM 14.9771 103.4406 178° South  Level FlightAware Approximate
02:47PM 14.8442 103.4461 178° South  Level FlightAware Approximate
02:48PM 14.7112 103.4515 178° South  Level FlightAware Approximate
02:49PM 14.5783 103.4569 178° South  Level FlightAware Approximate
02:50PM 14.4453 103.4624 178° South  Level FlightAware Approximate
02:51PM 14.3124 103.4678 178° South  Level FlightAware Approximate
02:52PM 14.1794 103.4732 178° South  Level FlightAware Approximate
02:53PM 14.0465 103.4787 178° South  Level FlightAware Approximate
02:54PM 13.9135 103.4841 178° South  Level FlightAware Approximate
02:55PM 13.7806 103.4895 178° South  Level FlightAware Approximate
02:56PM 13.6476 103.4949 178° South  Level FlightAware Approximate
02:57PM 13.5147 103.5003 178° South  Level FlightAware Approximate
02:58PM 13.3817 103.5056 178° South  Level FlightAware Approximate
02:59PM 13.2488 103.5110 178° South  Level FlightAware Approximate
03:00PM 13.1158 103.5164 178° South  Level FlightAware Approximate
03:01PM 12.9829 103.5218 178° South  Level FlightAware Approximate
03:02PM 12.8499 103.5271 178° South  Level FlightAware Approximate
03:03PM 12.7170 103.5325 178° South  Level FlightAware Approximate
03:04PM 12.5840 103.5378 178° South  Level FlightAware Approximate
03:05PM 12.4511 103.5432 178° South  Level FlightAware Approximate
03:06PM 12.3181 103.5485 178° South  Level FlightAware Approximate
03:07PM 12.1852 103.5538 178° South  Level FlightAware Approximate
03:08PM 12.0522 103.5592 178° South  Level FlightAware Approximate
03:09PM 11.9193 103.5645 178° South  Level FlightAware Approximate
03:10PM 11.7863 103.5698 178° South  Level FlightAware Approximate
03:11PM 11.6534 103.5751 178° South  Level FlightAware Approximate
03:12PM 11.5204 103.5804 178° South  Level FlightAware Approximate
03:13PM 11.3875 103.5857 178° South  Level FlightAware Approximate
03:14PM 11.2545 103.5910 178° South  Level FlightAware Approximate
03:15PM 11.1216 103.5963 178° South  Level FlightAware Approximate
03:16PM 10.9886 103.6016 178° South  Level FlightAware Approximate
03:17PM 10.8557 103.6069 178° South  Level FlightAware Approximate
03:18PM 10.7227 103.6122 178° South  Level FlightAware Approximate
03:19PM 10.5898 103.6174 178° South  Level FlightAware Approximate
03:20PM 10.4568 103.6227 178° South  Level FlightAware Approximate
03:21PM 10.3239 103.6280 178° South  Level FlightAware Approximate
03:22PM 10.1909 103.6332 178° South  Level FlightAware Approximate
03:23PM 10.0580 103.6385 178° South  Level FlightAware Approximate
03:24PM 9.9250 103.6437 178° South  Level FlightAware Approximate
03:25PM 9.7921 103.6490 178° South  Level FlightAware Approximate
03:26PM 9.6591 103.6542 178° South  Level FlightAware Approximate
03:27PM 9.5262 103.6595 178° South  Level FlightAware Approximate
03:28PM 9.3932 103.6647 178° South  Level FlightAware Approximate
03:29PM 9.2603 103.6699 178° South  Level FlightAware Approximate
03:30PM 9.1273 103.6752 178° South  Level FlightAware Approximate
03:31PM 8.9944 103.6804 178° South  Level FlightAware Approximate
03:32PM 8.8614 103.6856 178° South  Level FlightAware Approximate
03:33PM 8.7285 103.6908 178° South  Level FlightAware Approximate
03:34PM 8.5955 103.6960 178° South  Level FlightAware Approximate
03:35PM 8.4626 103.7012 178° South  Level FlightAware Approximate
03:36PM 8.3296 103.7065 178° South  Level FlightAware Approximate
03:37PM 8.1967 103.7116 178° South  Level FlightAware Approximate
03:38PM 8.0637 103.7169 178° South  Level FlightAware Approximate
03:39PM 7.9308 103.7220 178° South  Level FlightAware Approximate
03:40PM 7.7978 103.7272 178° South  Level FlightAware Approximate
03:41PM 7.6649 103.7324 178° South  Level FlightAware Approximate
03:42PM 7.5319 103.7376 178° South  Level FlightAware Approximate
03:43PM 7.3990 103.7428 178° South  Level FlightAware Approximate
03:44PM 7.2660 103.7480 178° South  Level FlightAware Approximate
03:45PM 7.1331 103.7531 178° South  Level FlightAware Approximate
03:46PM 7.0001 103.7583 178° South  Level FlightAware Approximate
03:47PM 6.8672 103.7635 178° South  Level FlightAware Approximate
03:48PM 6.7342 103.7686 178° South  Level FlightAware Approximate
03:49PM 6.6013 103.7738 178° South  Level FlightAware Approximate
03:50PM 6.4683 103.7790 178° South  Level FlightAware Approximate
03:51PM 6.3354 103.7841 178° South  Level FlightAware Approximate
03:52PM 6.2024 103.7893 178° South  Level FlightAware Approximate
03:53PM 6.0695 103.7944 178° South  Level FlightAware Approximate
03:54PM 5.9365 103.7996 178° South  Level FlightAware Approximate
03:55PM 5.8036 103.8047 178° South  Level FlightAware Approximate
03:56PM 5.6706 103.8099 178° South  Level FlightAware Approximate
03:57PM 5.5377 103.8150 178° South  Level FlightAware Approximate
03:58PM 5.4047 103.8202 178° South  Level FlightAware Approximate
03:59PM 5.2718 103.8253 178° South  Level FlightAware Approximate
04:00PM 5.1388 103.8305 178° South  Level FlightAware Approximate
04:01PM 5.0059 103.8356 178° South  Level FlightAware Approximate
04:02PM 4.8729 103.8407 178° South  Level FlightAware Approximate
04:03PM 4.7400 103.8458 178° South  Level FlightAware Approximate
04:04PM 4.6070 103.8510 178° South  Level FlightAware Approximate
04:05PM 4.4741 103.8561 178° South  Level FlightAware Approximate
04:06PM 4.3411 103.8612 178° South  Level FlightAware Approximate
04:07PM 4.2082 103.8663 178° South  Level FlightAware Approximate
04:08PM 4.0752 103.8715 178° South  Level FlightAware Approximate
04:09PM 3.9423 103.8766 178° South  Level FlightAware Approximate
04:10PM 3.8093 103.8817 178° South  Level FlightAware Approximate
04:11PM 3.6764 103.8868 178° South  Level FlightAware Approximate
04:12PM 3.5434 103.8919 178° South  Level FlightAware Approximate
04:13PM 3.4105 103.8970 178° South  Level FlightAware Approximate
04:14PM 3.2775 103.9046 175° South  Level FlightAware Approximate
04:15PM 3.1450 103.9157 175° South  Level FlightAware Approximate
04:16PM 3.0120 103.9194 176° South  Level FlightAware Approximate
04:17PM 2.8793 103.9289 176° South  Level FlightAware Approximate
04:18PM 2.7464 103.9333 180° South  Level FlightAware Approximate
04:19PM 2.6134 103.9333 180° South  Level FlightAware Approximate
04:20PM 2.4804 103.9368 178° South  Level FlightAware Approximate
04:21PM 2.3475 103.9421 178° South  Level FlightAware Approximate
04:22PM 2.2145 103.9474 178° South  Level FlightAware Approximate
04:23PM 2.0819 103.9568 174° South  Level FlightAware Approximate
04:24PM 1.9493 103.9667 180° South  Level FlightAware Approximate
04:25PM 1.8162 103.9667 180° South  Level FlightAware Approximate
04:26PM 1.6832 103.9667 180° South  Level FlightAware Approximate
04:27PM 1.5541 103.9833 180° South  Level FlightAware Approximate
04:28PM 1.4210 103.9833 180° South  Level FlightAware Approximate
04:29PM 1.3500 103.9833 180° South  Level FlightAware Approximate
04:30PM 1.3557 103.9875 180° South  Level Estimated
04:31PM 1.3500 103.9833 180° South  Level FlightAware Approximate
04:32PM 1.3557 103.9875 180° South  Level Estimated
04:33PM 1.3500 103.9833 180° South  Level FlightAware Approximate
04:34PM 1.3557 103.9875 180° South  Level Estimated
04:35PM 1.3500 103.9833 180° South  Level FlightAware Approximate
04:36PM 1.3557 103.9875 180° South  Level Estimated
04:37PM 1.3500 103.9833 180° South  Level FlightAware Approximate
04:38PM 1.3557 103.9875 180° South  Level Estimated
04:39PM 1.3500 103.9833 180° South  Level FlightAware Approximate
04:40PM 1.3557 103.9875 180° South  Level Estimated
04:41PM 1.3500 103.9833 180° South  Level FlightAware Approximate
04:42PM 1.3557 103.9875 180° South  Level Estimated
04:43PM 1.3500 103.9833 180° South  Level FlightAware Approximate
04:44PM 1.3557 103.9875 180° South  Level Estimated
04:45PM 1.3500 103.9833 180° South  Level FlightAware Approximate
04:46PM 1.3557 103.9875 180° South  Level Estimated
04:47PM 1.3500 103.9833 180° South  Level FlightAware Approximate
04:48PM 1.3557 103.9875 180° South  Level Estimated
04:49PM 1.3500 103.9833 180° South  Level FlightAware Approximate
04:50PM 1.3557 103.9875 180° South  Level Estimated
04:51PM 1.3500 103.9833 180° South  Level FlightAware Approximate
04:52PM 1.3557 103.9875 180° South  Level Estimated
04:53PM 1.3500 103.9833 180° South  Level FlightAware Approximate